Time;durP1;ratioP1;P1;durP2;ratioP2;P2;SDS_P1;SDS_P2;PMS_P1;PMS_P2;Temp;Humidity;BMP_temperature;BMP_pressure;BME280_temperature;BME280_humidity;BME280_pressure;Samples;Min_cycle;Max_cycle;Signal;HPM_P1;HPM_P2
2023/02/16 00:02:53;;;;;;;;;;;;;;;17.48;58.58;101656.06;2321081;75;50366;-73
2023/02/16 00:05:55;;;;;;;;;;;;;;;17.48;58.60;101652.55;2308410;76;51470;-72
2023/02/16 00:08:56;;;;;;;;;;;;;;;17.48;58.49;101652.55;2278777;77;51692;-73
2023/02/16 00:15:18;;;;;;;;;;;;;;;17.45;58.78;101659.05;2321512;76;22479;-73
2023/02/16 00:18:19;;;;;;;;;;;;;;;17.44;58.75;101654.67;2308686;76;51181;-73
2023/02/16 00:21:21;;;;;;;;;;;;;;;17.44;58.79;101662.70;2321290;76;51471;-73
2023/02/16 00:24:23;;;;;;;;;;;;;;;17.47;58.79;101665.09;2321173;76;50731;-73
2023/02/16 00:27:24;;;;;;;;;;;;;;;17.48;58.82;101650.71;2321244;75;51433;-72
2023/02/16 00:30:26;;;;;;;;;;;;;;;17.54;58.59;101653.27;2335838;76;52317;-72
2023/02/16 00:33:28;;;;;;;;;;;;;;;17.51;58.91;101655.75;2321085;76;50279;-73
2023/02/16 00:36:30;;;;;;;;;;;;;;;17.52;58.89;101656.59;2307676;76;51742;-74
2023/02/16 00:39:32;;;;;;;;;;;;;;;17.50;58.97;101646.56;2299853;76;51471;-73
2023/02/16 00:42:33;;;;;;;;;;;;;;;17.50;58.99;101654.08;2315570;75;52502;-72
2023/02/16 00:45:36;;;;;;;;;;;;;;;17.49;59.01;101652.38;2332573;75;51494;-72
2023/02/16 00:48:37;;;;;;;;;;;;;;;17.48;59.16;101644.02;2301579;76;50138;-73
2023/02/16 00:51:39;;;;;;;;;;;;;;;17.49;59.05;101660.41;2335984;76;50623;-73
2023/02/16 00:54:40;;;;;;;;;;;;;;;17.48;58.82;101649.38;2308986;76;52517;-73
2023/02/16 00:57:45;;;;;;;;;;;;;;;17.46;58.90;101659.38;2339118;75;51561;-73
2023/02/16 01:00:48;;;;;;;;;;;;;;;17.51;58.79;101649.06;2332746;75;50040;-73
2023/02/16 01:03:50;;;;;;;;;;;;;;;17.53;58.85;101651.59;2330469;75;51722;-72
2023/02/16 01:13:31;;;;;;;;;;;;;;;17.49;59.14;101647.53;2321513;75;22225;-73
2023/02/16 01:16:36;;;;;;;;;;;;;;;17.49;59.01;101643.52;2321422;76;51460;-72
2023/02/16 01:19:38;;;;;;;;;;;;;;;17.49;58.98;101648.37;2309086;76;51055;-73
2023/02/16 01:22:40;;;;;;;;;;;;;;;17.48;58.96;101650.71;2335560;75;51530;-72
2023/02/16 01:25:41;;;;;;;;;;;;;;;17.45;59.66;101644.33;2335898;76;51439;-73
2023/02/16 01:28:43;;;;;;;;;;;;;;;17.52;59.45;101644.08;2321521;75;51466;-73
2023/02/16 01:31:44;;;;;;;;;;;;;;;17.51;59.42;101642.38;2321679;76;51442;-73
2023/02/16 01:34:46;;;;;;;;;;;;;;;17.53;59.30;101639.06;2315990;76;51601;-73
2023/02/16 01:37:48;;;;;;;;;;;;;;;17.52;59.19;101641.40;2319757;76;51491;-73
2023/02/16 01:40:57;;;;;;;;;;;;;;;17.52;59.13;101637.86;2318748;75;50745;-73
2023/02/16 01:44:01;;;;;;;;;;;;;;;17.51;58.98;101626.31;2321254;76;50488;-73
2023/02/16 01:47:16;;;;;;;;;;;;;;;17.51;59.04;101633.01;2321362;76;51570;-73
2023/02/16 01:50:19;;;;;;;;;;;;;;;17.52;59.18;101633.84;2321384;75;50337;-73
2023/02/16 01:53:25;;;;;;;;;;;;;;;17.48;59.14;101631.98;2320381;75;51512;-73
2023/02/16 01:56:34;;;;;;;;;;;;;;;17.49;59.16;101630.97;2308898;76;52408;-72
2023/02/16 01:59:46;;;;;;;;;;;;;;;17.49;59.23;101622.11;2321318;75;50641;-73
2023/02/16 02:02:52;;;;;;;;;;;;;;;17.47;59.03;101627.64;2321231;75;51638;-73
2023/02/16 02:05:54;;;;;;;;;;;;;;;17.49;58.74;101631.48;2319530;75;51508;-74
2023/02/16 02:09:03;;;;;;;;;;;;;;;17.49;58.80;101632.81;2324732;76;50998;-73
2023/02/16 02:12:09;;;;;;;;;;;;;;;17.49;58.46;101625.63;2321237;76;51413;-73
2023/02/16 02:15:11;;;;;;;;;;;;;;;17.50;58.76;101625.16;2321509;76;50673;-73
2023/02/16 02:18:12;;;;;;;;;;;;;;;17.48;58.59;101619.11;2321413;75;50744;-73
2023/02/16 02:24:49;;;;;;;;;;;;;;;17.47;58.61;101616.06;2321706;76;22472;-72
2023/02/16 02:27:55;;;;;;;;;;;;;;;17.45;58.65;101608.20;2321298;75;50302;-73
2023/02/16 02:30:58;;;;;;;;;;;;;;;17.43;58.58;101611.53;2320984;76;51808;-73
2023/02/16 02:34:13;;;;;;;;;;;;;;;17.46;58.82;101620.58;2306732;76;52514;-73
2023/02/16 02:37:23;;;;;;;;;;;;;;;17.47;58.95;101615.59;2294818;75;49630;-73
2023/02/16 02:40:26;;;;;;;;;;;;;;;17.46;58.96;101608.54;2327761;75;51436;-73
2023/02/16 02:43:47;;;;;;;;;;;;;;;17.46;58.91;101608.54;2332044;75;51473;-73
2023/02/16 02:46:49;;;;;;;;;;;;;;;17.49;58.77;101605.55;2298572;75;52414;-73
2023/02/16 02:49:52;;;;;;;;;;;;;;;17.48;58.66;101607.90;2326115;76;51404;-73
2023/02/16 02:52:54;;;;;;;;;;;;;;;17.49;58.52;101610.91;2320717;76;50725;-73
2023/02/16 03:02:35;;;;;;;;;;;;;;;17.46;58.59;101597.00;2321231;75;22280;-74
2023/02/16 03:05:37;;;;;;;;;;;;;;;17.45;58.95;101589.48;2316374;76;52420;-72
2023/02/16 03:08:39;;;;;;;;;;;;;;;17.45;58.83;101593.49;2270648;77;50656;-73
2023/02/16 03:15:00;;;;;;;;;;;;;;;17.47;58.68;101593.32;2271067;77;22415;-73
2023/02/16 03:31:22;;;;;;;;;;;;;;;17.47;59.21;101587.50;2321484;75;22708;-74
2023/02/16 03:34:24;;;;;;;;;;;;;;;17.46;58.72;101588.98;2307484;76;51598;-75
2023/02/16 03:37:25;;;;;;;;;;;;;;;17.44;58.74;101594.47;2283494;76;51730;-74
2023/02/16 03:40:27;;;;;;;;;;;;;;;17.43;58.96;101592.80;2272374;77;51353;-74
2023/02/16 03:43:29;;;;;;;;;;;;;;;17.43;58.96;101593.30;2277372;77;51567;-74
2023/02/16 03:46:30;;;;;;;;;;;;;;;17.42;58.84;101595.14;2279230;77;51510;-72
2023/02/16 03:49:32;;;;;;;;;;;;;;;17.44;59.00;101595.80;2257706;77;52481;-72
2023/02/16 03:52:33;;;;;;;;;;;;;;;17.47;59.08;101598.67;2296201;77;51455;-72
2023/02/16 03:55:36;;;;;;;;;;;;;;;17.49;59.21;101590.00;2296302;77;51408;-72
2023/02/16 03:58:37;;;;;;;;;;;;;;;17.49;59.21;101593.52;2299555;76;50299;-71
2023/02/16 04:01:39;;;;;;;;;;;;;;;17.51;58.91;101588.86;2321332;75;51422;-73
2023/02/16 04:04:41;;;;;;;;;;;;;;;17.48;58.91;101590.50;2338092;75;51523;-73
2023/02/16 04:07:42;;;;;;;;;;;;;;;17.48;59.07;101583.81;2285262;76;51497;-73
2023/02/16 04:10:44;;;;;;;;;;;;;;;17.51;59.19;101588.86;2310012;75;50617;-73
2023/02/16 04:13:45;;;;;;;;;;;;;;;17.51;58.92;101590.70;2308775;76;49526;-73
2023/02/16 04:16:47;;;;;;;;;;;;;;;17.48;58.88;101585.16;2335431;75;50087;-73
2023/02/16 04:19:48;;;;;;;;;;;;;;;17.47;58.99;101591.52;2293363;77;50047;-73
2023/02/16 04:22:50;;;;;;;;;;;;;;;17.46;59.16;101591.15;2282467;78;51606;-73
2023/02/16 04:25:52;;;;;;;;;;;;;;;17.43;59.14;101585.27;2297238;76;51151;-73
2023/02/16 04:28:53;;;;;;;;;;;;;;;17.43;59.11;101583.44;2289949;76;50618;-73
2023/02/16 04:31:55;;;;;;;;;;;;;;;17.46;59.30;101588.47;2321172;75;51413;-72
2023/02/16 04:34:56;;;;;;;;;;;;;;;17.57;59.10;101585.59;2321246;76;50633;-73
2023/02/16 04:37:58;;;;;;;;;;;;;;;17.52;59.11;101585.20;2273532;76;50923;-73
2023/02/16 04:41:00;;;;;;;;;;;;;;;17.54;59.21;101586.37;2320986;75;51433;-72
2023/02/16 04:44:01;;;;;;;;;;;;;;;17.55;59.02;101590.25;2321003;76;52141;-73
2023/02/16 04:47:03;;;;;;;;;;;;;;;17.52;59.04;101588.35;2321315;76;51425;-73
2023/02/16 04:50:05;;;;;;;;;;;;;;;17.47;59.13;101586.63;2301616;75;52348;-73
2023/02/16 04:53:07;;;;;;;;;;;;;;;17.44;59.25;101586.44;2326420;75;51370;-73
2023/02/16 04:56:11;;;;;;;;;;;;;;;17.45;59.28;101578.78;2321459;75;50134;-73
2023/02/16 04:59:13;;;;;;;;;;;;;;;17.48;59.31;101587.83;2335375;74;50838;-73
2023/02/16 05:02:15;;;;;;;;;;;;;;;17.51;59.04;101576.81;2321027;75;51498;-73
2023/02/16 05:05:16;;;;;;;;;;;;;;;17.51;59.02;101573.30;2321283;76;49918;-73
2023/02/16 05:08:18;;;;;;;;;;;;;;;17.51;59.05;101578.16;2335329;76;51488;-74
2023/02/16 05:14:42;;;;;;;;;;;;;;;17.52;59.33;101577.17;2326451;75;22505;-73
2023/02/16 05:17:43;;;;;;;;;;;;;;;17.55;59.28;101580.88;2325321;75;51494;-73
2023/02/16 05:24:05;;;;;;;;;;;;;;;17.49;59.10;101590.84;2300595;76;22511;-73
2023/02/16 05:27:08;;;;;;;;;;;;;;;17.46;59.31;101589.81;2293952;76;51266;-73
2023/02/16 05:30:10;;;;;;;;;;;;;;;17.47;59.28;101603.55;2289498;76;51462;-72
2023/02/16 05:33:11;;;;;;;;;;;;;;;17.49;59.10;101598.86;2335517;75;50261;-73
2023/02/16 05:36:13;;;;;;;;;;;;;;;17.47;59.26;101598.20;2321390;76;50302;-72
2023/02/16 05:39:15;;;;;;;;;;;;;;;17.46;59.20;101599.17;2308827;76;51105;-72
2023/02/16 05:42:16;;;;;;;;;;;;;;;17.49;59.14;101588.16;2328326;75;52177;-72
2023/02/16 05:45:18;;;;;;;;;;;;;;;17.46;59.25;101595.16;2332755;75;50404;-73
2023/02/16 05:48:19;;;;;;;;;;;;;;;17.47;59.11;101584.83;2332616;75;50717;-73
2023/02/16 05:51:21;;;;;;;;;;;;;;;17.49;59.44;101580.64;2286695;76;51602;-74
2023/02/16 05:54:23;;;;;;;;;;;;;;;17.48;59.67;101578.97;2309233;76;51571;-71
2023/02/16 05:57:24;;;;;;;;;;;;;;;17.47;59.61;101579.94;2309509;76;50669;-73
2023/02/16 06:00:26;;;;;;;;;;;;;;;17.44;59.38;101589.62;2308492;75;51421;-72
2023/02/16 06:03:28;;;;;;;;;;;;;;;17.42;59.55;101589.80;2315273;75;50280;-71
2023/02/16 06:06:29;;;;;;;;;;;;;;;17.40;59.50;101594.45;2332396;76;50721;-70
2023/02/16 06:09:31;;;;;;;;;;;;;;;17.44;59.36;101600.32;2295332;75;51447;-71
2023/02/16 06:12:33;;;;;;;;;;;;;;;17.42;59.54;101608.52;2286510;76;51417;-71
2023/02/16 06:15:35;;;;;;;;;;;;;;;17.44;60.25;101606.51;2302649;76;51255;-70
2023/02/16 06:18:36;;;;;;;;;;;;;;;17.45;61.03;101603.36;2339226;75;49651;-70
2023/02/16 06:21:38;;;;;;;;;;;;;;;17.47;61.03;101600.02;2327176;75;51458;-71
2023/02/16 06:24:39;;;;;;;;;;;;;;;17.46;60.82;101592.48;2322175;76;50726;-71
2023/02/16 06:27:41;;;;;;;;;;;;;;;17.45;60.68;101602.02;2322707;75;51441;-70
2023/02/16 06:30:42;;;;;;;;;;;;;;;17.44;60.54;101607.02;2325442;76;50713;-71
2023/02/16 06:33:44;;;;;;;;;;;;;;;17.43;60.40;101609.35;2322287;75;51414;-71
2023/02/16 06:36:46;;;;;;;;;;;;;;;17.43;60.48;101606.68;2337020;75;51470;-71
2023/02/16 06:39:47;;;;;;;;;;;;;;;17.41;60.36;101607.66;2311051;76;51637;-71
2023/02/16 06:42:49;;;;;;;;;;;;;;;17.41;60.34;101617.02;2336119;75;50639;-70
2023/02/16 06:45:50;;;;;;;;;;;;;;;17.41;60.12;101614.34;2328810;75;50691;-70
2023/02/16 06:48:52;;;;;;;;;;;;;;;17.45;60.03;101614.89;2320447;75;50336;-71
2023/02/16 06:51:54;;;;;;;;;;;;;;;17.56;59.74;101613.83;2297963;76;52353;-71
2023/02/16 06:54:55;;;;;;;;;;;;;;;17.61;59.60;101619.06;2336333;75;50212;-71
2023/02/16 06:57:57;;;;;;;;;;;;;;;17.62;59.46;101622.57;2336331;75;50110;-73
2023/02/16 07:00:58;;;;;;;;;;;;;;;17.54;60.56;101623.33;2321777;75;50254;-74
2023/02/16 07:04:00;;;;;;;;;;;;;;;17.49;60.44;101630.97;2303492;76;51447;-73
2023/02/16 07:07:01;;;;;;;;;;;;;;;17.47;60.59;101620.08;2332809;75;51409;-73
2023/02/16 07:10:03;;;;;;;;;;;;;;;17.45;60.76;101616.23;2332728;76;50602;-74
2023/02/16 07:13:05;;;;;;;;;;;;;;;17.44;60.37;101615.88;2351289;74;50350;-73
2023/02/16 07:16:06;;;;;;;;;;;;;;;17.41;60.00;101625.05;2324656;76;51111;-73
2023/02/16 07:19:08;;;;;;;;;;;;;;;17.44;59.96;101621.73;2318299;75;50121;-73
2023/02/16 07:22:10;;;;;;;;;;;;;;;17.46;59.91;101615.23;2304089;75;51501;-74
2023/02/16 07:25:11;;;;;;;;;;;;;;;17.52;59.66;101613.30;2321165;76;50209;-73
2023/02/16 07:28:13;;;;;;;;;;;;;;;17.60;59.37;101609.36;2283515;76;51053;-73
2023/02/16 07:31:15;;;;;;;;;;;;;;;17.59;59.32;101617.02;2321333;76;51364;-74
2023/02/16 07:34:16;;;;;;;;;;;;;;;17.62;59.21;101622.09;2320937;75;51398;-73
2023/02/16 07:37:18;;;;;;;;;;;;;;;17.64;59.09;101613.89;2321289;76;51496;-74
2023/02/16 07:40:20;;;;;;;;;;;;;;;17.57;59.24;101608.33;2319747;76;51085;-73
2023/02/16 07:43:21;;;;;;;;;;;;;;;17.52;59.37;101611.09;2308749;76;50706;-74
2023/02/16 07:46:23;;;;;;;;;;;;;;;17.49;59.39;101608.73;2308947;76;50686;-73
2023/02/16 07:49:24;;;;;;;;;;;;;;;17.45;59.48;101606.03;2319928;76;51429;-74
2023/02/16 07:52:29;;;;;;;;;;;;;;;17.43;59.51;101605.34;2318796;76;51496;-74
2023/02/16 07:55:29;;;;;;;;;;;;;;;17.41;59.49;101603.64;2320776;76;22799;-73
2023/02/16 07:58:31;;;;;;;;;;;;;;;17.45;59.44;101605.53;2320895;75;50332;-74
2023/02/16 08:01:33;;;;;;;;;;;;;;;17.51;59.30;101614.78;2319192;76;50628;-73
2023/02/16 08:04:34;;;;;;;;;;;;;;;17.61;59.02;101612.37;2319155;76;50256;-74
2023/02/16 08:07:36;;;;;;;;;;;;;;;17.72;58.67;101621.16;2319403;76;51404;-74
2023/02/16 08:10:37;;;;;;;;;;;;;;;17.79;58.40;101616.87;2321023;76;50256;-73
2023/02/16 08:13:39;;;;;;;;;;;;;;;17.81;58.30;101622.96;2318921;76;50384;-74
2023/02/16 08:16:41;;;;;;;;;;;;;;;17.83;58.16;101612.95;2321136;76;50141;-73
2023/02/16 08:19:42;;;;;;;;;;;;;;;17.84;58.15;101614.61;2306186;76;51132;-74
2023/02/16 08:22:44;;;;;;;;;;;;;;;17.83;58.09;101617.80;2300407;76;50643;-74
2023/02/16 08:25:45;;;;;;;;;;;;;;;17.78;58.19;101618.72;2319827;76;50417;-74
2023/02/16 08:28:48;;;;;;;;;;;;;;;17.71;58.36;101632.88;2321193;76;50374;-74
2023/02/16 08:31:50;;;;;;;;;;;;;;;17.66;58.49;101636.51;2321313;76;51589;-74
2023/02/16 08:34:52;;;;;;;;;;;;;;;17.58;58.65;101634.09;2319294;76;51401;-73
2023/02/16 08:37:53;;;;;;;;;;;;;;;17.59;58.59;101623.72;2319323;76;50706;-74
2023/02/16 08:40:55;;;;;;;;;;;;;;;17.67;58.46;101624.80;2321373;76;51699;-73
2023/02/16 08:43:56;;;;;;;;;;;;;;;17.75;58.13;101620.37;2294725;76;52664;-73
2023/02/16 08:46:59;;;;;;;;;;;;;;;17.81;57.95;101621.62;2321375;76;50734;-74
2023/02/16 08:50:01;;;;;;;;;;;;;;;17.82;57.81;101620.11;2303264;76;50758;-73
2023/02/16 08:53:02;;;;;;;;;;;;;;;17.85;57.73;101625.66;2279810;76;51480;-74
2023/02/16 08:56:04;;;;;;;;;;;;;;;17.84;57.70;101614.61;2248028;78;52612;-74
2023/02/16 08:59:06;;;;;;;;;;;;;;;17.83;57.67;101602.23;2273188;77;50689;-74
2023/02/16 09:02:09;;;;;;;;;;;;;;;17.80;57.74;101614.56;2271211;77;51539;-74
2023/02/16 09:05:10;;;;;;;;;;;;;;;17.71;57.88;101612.30;2271511;78;49952;-74
2023/02/16 09:08:13;;;;;;;;;;;;;;;17.66;58.11;101609.74;2248298;77;51128;-74
2023/02/16 09:11:15;;;;;;;;;;;;;;;17.62;58.14;101607.38;2271573;78;51563;-74
2023/02/16 09:14:20;;;;;;;;;;;;;;;17.61;58.16;101611.53;2271190;78;50314;-74
2023/02/16 09:17:21;;;;;;;;;;;;;;;17.64;58.06;101607.20;2271387;77;51525;-74
2023/02/16 09:20:23;;;;;;;;;;;;;;;17.73;57.80;101604.13;2292424;76;51476;-74
2023/02/16 09:23:25;;;;;;;;;;;;;;;17.82;57.53;101591.17;2319058;76;50351;-74
2023/02/16 09:26:28;;;;;;;;;;;;;;;17.87;57.38;101608.95;2321562;76;51493;-73
2023/02/16 09:29:29;;;;;;;;;;;;;;;17.91;57.25;101611.67;2321290;76;50398;-72
2023/02/16 09:32:31;;;;;;;;;;;;;;;17.87;57.29;101599.57;2294740;76;51068;-73
2023/02/16 09:35:32;;;;;;;;;;;;;;;17.89;57.20;101606.95;2321244;76;50629;-74
2023/02/16 09:38:34;;;;;;;;;;;;;;;17.91;57.15;101604.97;2319299;76;50446;-74
2023/02/16 09:41:47;;;;;;;;;;;;;;;17.87;57.23;101602.25;2319215;76;51504;-74
2023/02/16 09:45:08;;;;;;;;;;;;;;;17.83;57.26;101604.91;2294393;76;52364;-74
2023/02/16 09:48:12;;;;;;;;;;;;;;;17.80;57.37;101600.71;2319184;76;50717;-74
2023/02/16 09:51:15;;;;;;;;;;;;;;;17.70;57.58;101609.77;2309609;76;51435;-73
2023/02/16 09:54:18;;;;;;;;;;;;;;;17.69;57.63;101609.43;2271184;77;51490;-74
2023/02/16 09:57:34;;;;;;;;;;;;;;;17.75;57.41;101598.96;2247889;78;51250;-74
2023/02/16 10:00:40;;;;;;;;;;;;;;;17.84;57.21;101594.53;2271418;77;51453;-74
2023/02/16 10:03:48;;;;;;;;;;;;;;;17.93;56.94;101592.28;2271182;77;51311;-73
2023/02/16 10:07:07;;;;;;;;;;;;;;;17.98;56.84;101592.66;2271170;77;50284;-74
2023/02/16 10:10:10;;;;;;;;;;;;;;;18.04;56.62;101593.36;2247659;77;51127;-74
2023/02/16 10:13:16;;;;;;;;;;;;;;;18.06;56.58;101594.05;2271072;78;51445;-74
2023/02/16 10:16:19;;;;;;;;;;;;;;;18.07;56.54;101597.55;2271294;78;50395;-74
2023/02/16 10:19:23;;;;;;;;;;;;;;;18.06;56.58;101592.70;2260662;76;52577;-74
2023/02/16 10:22:29;;;;;;;;;;;;;;;18.05;56.55;101595.02;2303081;76;51194;-74
2023/02/16 10:25:42;;;;;;;;;;;;;;;18.03;56.57;101592.16;2319152;76;51392;-74
2023/02/16 10:28:51;;;;;;;;;;;;;;;18.00;56.59;101601.34;2319336;76;50791;-74
2023/02/16 10:32:06;;;;;;;;;;;;;;;17.97;56.66;101597.64;2319229;76;50274;-73
2023/02/16 10:35:13;;;;;;;;;;;;;;;17.98;56.64;101603.84;2294761;76;51829;-74
2023/02/16 10:38:26;;;;;;;;;;;;;;;17.95;56.70;101601.48;2319360;75;51616;-73
2023/02/16 10:41:31;;;;;;;;;;;;;;;17.97;56.66;101596.81;2319393;76;51635;-74
2023/02/16 10:44:36;;;;;;;;;;;;;;;18.02;56.48;101598.02;2319184;76;51621;-73
2023/02/16 10:47:38;;;;;;;;;;;;;;;18.06;56.39;101589.20;2321500;75;52477;-74
2023/02/16 10:50:41;;;;;;;;;;;;;;;18.16;56.20;101590.41;2320079;76;50356;-73
2023/02/16 10:53:44;;;;;;;;;;;;;;;18.18;56.12;101579.05;2270937;76;50115;-74
2023/02/16 10:56:59;;;;;;;;;;;;;;;18.19;56.08;101574.05;2271236;77;51517;-73
2023/02/16 11:00:06;;;;;;;;;;;;;;;18.21;56.05;101576.05;2247956;78;49648;-74
2023/02/16 11:03:10;;;;;;;;;;;;;;;18.16;56.10;101570.32;2271073;77;50257;-73
2023/02/16 11:06:16;;;;;;;;;;;;;;;18.15;56.15;101573.50;2273033;77;51397;-73
2023/02/16 11:09:17;;;;;;;;;;;;;;;18.12;56.21;101572.98;2271034;77;51496;-74
2023/02/16 11:12:21;;;;;;;;;;;;;;;18.08;56.24;101565.75;2270718;77;50373;-74
2023/02/16 11:15:23;;;;;;;;;;;;;;;18.06;56.27;101559.73;2270799;77;50401;-74
2023/02/16 11:18:28;;;;;;;;;;;;;;;18.02;56.32;101568.56;2271704;77;51346;-73
2023/02/16 11:21:49;;;;;;;;;;;;;;;18.02;56.35;101567.22;2280716;75;51569;-74
2023/02/16 11:24:50;;;;;;;;;;;;;;;18.08;56.20;101567.59;2319655;76;52663;-73
2023/02/16 11:27:56;;;;;;;;;;;;;;;18.14;56.05;101569.66;2321198;76;51483;-73
2023/02/16 11:30:59;;;;;;;;;;;;;;;18.19;55.95;101574.05;2321574;75;50576;-73
2023/02/16 11:34:02;;;;;;;;;;;;;;;18.23;55.87;101562.00;2309119;76;51475;-73
2023/02/16 11:37:08;;;;;;;;;;;;;;;18.25;55.85;101560.01;2324009;75;52926;-73
2023/02/16 11:40:15;;;;;;;;;;;;;;;18.25;55.82;101551.97;2321235;76;50778;-73
2023/02/16 11:43:16;;;;;;;;;;;;;;;18.27;55.72;101550.81;2314930;76;50324;-73
2023/02/16 11:46:19;;;;;;;;;;;;;;;18.27;55.70;101540.60;2321315;75;51452;-73
2023/02/16 11:49:22;;;;;;;;;;;;;;;18.23;55.83;101546.76;2323212;76;51302;-73
2023/02/16 11:52:26;;;;;;;;;;;;;;;18.16;55.92;101539.04;2305091;76;50201;-73
2023/02/16 11:55:31;;;;;;;;;;;;;;;18.12;56.03;101540.34;2321384;76;52332;-73
2023/02/16 11:58:31;;;;;;;;;;;;;;;18.15;55.93;101533.33;2321685;75;22841;-73
2023/02/16 12:01:35;;;;;;;;;;;;;;;18.11;56.04;101532.45;2283532;76;52536;-73
2023/02/16 12:04:41;;;;;;;;;;;;;;;18.12;56.00;101527.45;2321277;76;51562;-74
2023/02/16 12:07:47;;;;;;;;;;;;;;;18.18;55.85;101522.80;2321444;76;51458;-74
2023/02/16 12:11:02;;;;;;;;;;;;;;;18.24;55.74;101519.50;2321253;75;50308;-73
2023/02/16 12:14:05;;;;;;;;;;;;;;;18.28;55.64;101520.33;2321645;76;50697;-74
2023/02/16 12:17:12;;;;;;;;;;;;;;;18.31;55.55;101521.02;2321765;76;50747;-73
2023/02/16 12:20:16;;;;;;;;;;;;;;;18.34;55.51;101518.02;2320997;76;51499;-73
2023/02/16 12:23:37;;;;;;;;;;;;;;;18.35;55.44;101516.53;2275968;76;51768;-74
2023/02/16 12:26:46;;;;;;;;;;;;;;;18.38;55.40;101510.01;2248298;78;52462;-73
2023/02/16 12:29:52;;;;;;;;;;;;;;;18.34;55.46;101502.80;2271444;77;51590;-74
2023/02/16 12:32:58;;;;;;;;;;;;;;;18.31;55.47;101503.09;2271322;77;51509;-74
2023/02/16 12:36:14;;;;;;;;;;;;;;;18.28;55.56;101507.44;2271363;77;51425;-74
2023/02/16 12:39:24;;;;;;;;;;;;;;;18.25;55.61;101495.20;2248230;78;52647;-75
2023/02/16 12:42:33;;;;;;;;;;;;;;;18.19;55.74;101495.86;2271182;77;51432;-74
2023/02/16 12:45:36;;;;;;;;;;;;;;;18.16;55.81;101499.34;2271454;78;51459;-74
2023/02/16 12:48:42;;;;;;;;;;;;;;;18.20;55.70;101496.69;2272576;76;51559;-74
2023/02/16 12:51:45;;;;;;;;;;;;;;;18.28;55.55;101499.41;2313480;76;51478;-74
2023/02/16 12:54:51;;;;;;;;;;;;;;;18.30;55.46;101490.72;2319091;76;51383;-73
2023/02/16 12:57:54;;;;;;;;;;;;;;;18.32;55.45;101495.92;2319505;76;50322;-73
2023/02/16 13:00:59;;;;;;;;;;;;;;;18.38;55.29;101495.27;2319528;76;50424;-73
2023/02/16 13:04:01;;;;;;;;;;;;;;;18.36;55.39;101487.37;2319492;76;22147;-73
2023/02/16 13:07:16;;;;;;;;;;;;;;;18.37;55.30;101485.06;2319354;76;50630;-73
2023/02/16 13:10:24;;;;;;;;;;;;;;;18.30;55.44;101478.66;2319539;76;23229;-73
2023/02/16 13:13:26;;;;;;;;;;;;;;;18.33;55.39;101478.84;2319221;76;51501;-74
2023/02/16 13:16:30;;;;;;;;;;;;;;;18.29;55.47;101483.69;2319400;76;51501;-74
2023/02/16 13:19:31;;;;;;;;;;;;;;;18.28;55.51;101482.83;2304356;76;50372;-74
2023/02/16 13:22:51;;;;;;;;;;;;;;;18.26;55.54;101474.61;2306693;75;50596;-74
2023/02/16 13:26:00;;;;;;;;;;;;;;;18.19;55.62;101470.92;2301312;75;50662;-74
2023/02/16 13:29:04;;;;;;;;;;;;;;;18.25;55.54;101473.78;2289578;76;51725;-74
2023/02/16 13:32:19;;;;;;;;;;;;;;;18.28;55.46;101472.62;2316050;75;50327;-73
2023/02/16 13:35:41;;;;;;;;;;;;;;;18.32;55.34;101467.80;2295025;75;51501;-74
2023/02/16 13:39:01;;;;;;;;;;;;;;;18.35;55.30;101472.31;2275896;77;51527;-74
2023/02/16 13:42:11;;;;;;;;;;;;;;;18.38;55.30;101467.14;2257566;78;51159;-74
2023/02/16 13:45:17;;;;;;;;;;;;;;;18.41;55.19;101455.58;2313164;76;50417;-74
2023/02/16 13:48:23;;;;;;;;;;;;;;;18.42;55.15;101453.26;2293990;76;50677;-74
2023/02/16 13:51:25;;;;;;;;;;;;;;;18.37;55.36;101456.06;2315546;75;51624;-74
2023/02/16 13:54:34;;;;;;;;;;;;;;;18.38;55.32;101464.45;2312411;76;51200;-74
2023/02/16 13:57:49;;;;;;;;;;;;;;;18.32;55.48;101467.28;2321251;75;50371;-74
2023/02/16 14:00:51;;;;;;;;;;;;;;;18.31;55.51;101462.08;2320572;76;51658;-74
2023/02/16 14:03:53;;;;;;;;;;;;;;;18.25;55.64;101467.59;2304142;76;50467;-73
2023/02/16 14:07:00;;;;;;;;;;;;;;;18.21;55.70;101465.73;2311343;76;50614;-73
2023/02/16 14:10:01;;;;;;;;;;;;;;;18.26;55.67;101477.29;2292052;76;50647;-73
2023/02/16 14:13:04;;;;;;;;;;;;;;;18.26;55.72;101471.45;2289801;76;50615;-73
2023/02/16 14:16:10;;;;;;;;;;;;;;;18.34;55.54;101466.63;2315595;75;52507;-73
2023/02/16 14:19:17;;;;;;;;;;;;;;;18.37;55.54;101448.02;2290201;76;51767;-73
2023/02/16 14:22:19;;;;;;;;;;;;;;;18.41;55.43;101457.43;2319985;76;50755;-73
2023/02/16 14:25:23;;;;;;;;;;;;;;;18.41;55.44;101455.58;2319499;76;51596;-73
2023/02/16 14:28:35;;;;;;;;;;;;;;;18.42;55.38;101453.26;2319510;76;51569;-73
2023/02/16 14:31:38;;;;;;;;;;;;;;;18.42;55.36;101456.41;2295090;76;51075;-73
2023/02/16 14:34:41;;;;;;;;;;;;;;;18.41;55.35;101452.91;2318889;76;50254;-73
2023/02/16 14:37:56;;;;;;;;;;;;;;;18.40;55.39;101457.10;2319085;76;51539;-73
2023/02/16 14:41:05;;;;;;;;;;;;;;;18.34;55.52;101451.03;2319177;76;51382;-73
2023/02/16 14:44:08;;;;;;;;;;;;;;;18.28;55.63;101456.55;2320862;76;52636;-73
2023/02/16 14:47:24;;;;;;;;;;;;;;;18.24;55.72;101449.84;2319088;76;50667;-73
2023/02/16 14:50:27;;;;;;;;;;;;;;;18.25;55.72;101452.34;2318972;76;51695;-73
2023/02/16 14:53:46;;;;;;;;;;;;;;;18.31;55.59;101454.88;2271879;76;50035;-73
2023/02/16 14:56:58;;;;;;;;;;;;;;;18.32;55.60;101453.89;2303599;76;51540;-74
2023/02/16 15:00:05;;;;;;;;;;;;;;;18.37;55.52;101448.02;2280147;76;50269;-74
2023/02/16 15:03:14;;;;;;;;;;;;;;;18.41;55.37;101446.20;2270526;78;51522;-74
2023/02/16 15:06:30;;;;;;;;;;;;;;;18.42;55.38;101452.39;2270569;77;50310;-73
2023/02/16 15:09:34;;;;;;;;;;;;;;;18.40;55.37;101451.23;2247608;78;50946;-73
2023/02/16 15:12:37;;;;;;;;;;;;;;;18.38;55.46;101449.22;2270531;77;51619;-74
2023/02/16 15:15:45;;;;;;;;;;;;;;;18.35;55.52;101450.88;2272658;77;50286;-73
2023/02/16 15:18:48;;;;;;;;;;;;;;;18.31;55.62;101450.86;2270655;77;50382;-73
2023/02/16 15:21:51;;;;;;;;;;;;;;;18.27;55.68;101457.05;2270650;77;51476;-73
2023/02/16 15:25:00;;;;;;;;;;;;;;;18.22;55.75;101451.33;2270781;77;50705;-73
2023/02/16 15:28:03;;;;;;;;;;;;;;;18.22;55.77;101449.16;2308532;76;50535;-73
2023/02/16 15:31:05;;;;;;;;;;;;;;;18.22;55.76;101439.78;2287507;76;50843;-73
2023/02/16 15:34:07;;;;;;;;;;;;;;;18.27;55.69;101450.86;2261847;77;51251;-73
2023/02/16 15:37:20;;;;;;;;;;;;;;;18.34;55.56;101443.86;2285519;76;51572;-73
2023/02/16 15:40:25;;;;;;;;;;;;;;;18.36;55.53;101442.34;2285714;76;51599;-74
2023/02/16 15:43:38;;;;;;;;;;;;;;;18.42;55.42;101445.70;2285440;76;51632;-73
2023/02/16 15:46:42;;;;;;;;;;;;;;;18.43;55.34;101445.55;2285746;77;51615;-73
2023/02/16 15:49:44;;;;;;;;;;;;;;;18.42;55.31;101438.52;2285644;76;51554;-74
2023/02/16 15:52:45;;;;;;;;;;;;;;;18.43;55.30;101432.66;2286104;76;51427;-73
2023/02/16 15:55:47;;;;;;;;;;;;;;;18.36;55.45;101432.45;2293483;75;50779;-74
2023/02/16 15:58:49;;;;;;;;;;;;;;;18.33;55.52;101427.93;2306178;75;51180;-74
2023/02/16 16:01:52;;;;;;;;;;;;;;;18.32;55.62;101424.42;2303612;77;50392;-72
2023/02/16 16:04:55;;;;;;;;;;;;;;;18.29;56.48;101423.41;2303338;75;50528;-73
2023/02/16 16:07:56;;;;;;;;;;;;;;;18.30;56.85;101430.94;2301837;76;51546;-75
2023/02/16 16:10:58;;;;;;;;;;;;;;;18.22;57.51;101423.72;2296400;76;51411;-73
2023/02/16 16:14:00;;;;;;;;;;;;;;;18.19;56.55;101410.14;2308616;76;51472;-72
2023/02/16 16:17:02;;;;;;;;;;;;;;;18.19;55.95;101406.13;2320873;76;51589;-72
2023/02/16 16:20:22;;;;;;;;;;;;;;;18.28;55.72;101415.02;2320913;76;50664;-73
2023/02/16 16:23:24;;;;;;;;;;;;;;;18.30;55.63;101416.20;2307090;76;51620;-72
2023/02/16 16:26:26;;;;;;;;;;;;;;;18.28;55.65;101406.98;2308843;76;50680;-73
2023/02/16 16:29:32;;;;;;;;;;;;;;;18.33;55.52;101407.33;2307898;76;51557;-73